sensor_id;sensor_type;location;lat;lon;timestamp;P1;durP1;ratioP1;P2;durP2;ratioP2
42700;SDS011;28316;49.504;8.526;2024-03-06T00:01:52;14.40;;;4.15;;
42700;SDS011;28316;49.504;8.526;2024-03-06T00:04:18;11.20;;;4.97;;
42700;SDS011;28316;49.504;8.526;2024-03-06T00:06:46;12.30;;;5.07;;
42700;SDS011;28316;49.504;8.526;2024-03-06T00:09:12;10.30;;;5.20;;
42700;SDS011;28316;49.504;8.526;2024-03-06T00:11:37;5.22;;;3.63;;
42700;SDS011;28316;49.504;8.526;2024-03-06T00:14:03;8.55;;;4.28;;
42700;SDS011;28316;49.504;8.526;2024-03-06T00:16:30;6.30;;;3.10;;
42700;SDS011;28316;49.504;8.526;2024-03-06T00:18:57;13.95;;;4.57;;
42700;SDS011;28316;49.504;8.526;2024-03-06T00:21:25;6.65;;;3.88;;
42700;SDS011;28316;49.504;8.526;2024-03-06T00:23:51;6.72;;;4.05;;
42700;SDS011;28316;49.504;8.526;2024-03-06T00:26:16;6.47;;;3.33;;
42700;SDS011;28316;49.504;8.526;2024-03-06T00:28:42;9.50;;;4.25;;
42700;SDS011;28316;49.504;8.526;2024-03-06T00:31:08;10.05;;;2.80;;
42700;SDS011;28316;49.504;8.526;2024-03-06T00:33:33;8.15;;;3.97;;
42700;SDS011;28316;49.504;8.526;2024-03-06T00:35:59;9.10;;;3.30;;
42700;SDS011;28316;49.504;8.526;2024-03-06T00:38:25;5.63;;;3.15;;
42700;SDS011;28316;49.504;8.526;2024-03-06T00:40:51;8.50;;;4.25;;
42700;SDS011;28316;49.504;8.526;2024-03-06T00:43:16;5.35;;;3.17;;
42700;SDS011;28316;49.504;8.526;2024-03-06T00:45:43;6.82;;;3.42;;
42700;SDS011;28316;49.504;8.526;2024-03-06T00:48:08;5.95;;;3.72;;
42700;SDS011;28316;49.504;8.526;2024-03-06T00:50:34;7.47;;;3.80;;
42700;SDS011;28316;49.504;8.526;2024-03-06T00:53:00;11.90;;;2.97;;
42700;SDS011;28316;49.504;8.526;2024-03-06T00:55:26;6.70;;;3.63;;
42700;SDS011;28316;49.504;8.526;2024-03-06T00:57:52;12.65;;;3.67;;
42700;SDS011;28316;49.504;8.526;2024-03-06T01:00:18;5.65;;;3.60;;
42700;SDS011;28316;49.504;8.526;2024-03-06T01:02:44;6.90;;;3.13;;
42700;SDS011;28316;49.504;8.526;2024-03-06T01:05:10;11.48;;;3.78;;
42700;SDS011;28316;49.504;8.526;2024-03-06T01:07:39;6.18;;;3.25;;
42700;SDS011;28316;49.504;8.526;2024-03-06T01:10:05;7.45;;;3.17;;
42700;SDS011;28316;49.504;8.526;2024-03-06T01:12:41;9.88;;;3.97;;
42700;SDS011;28316;49.504;8.526;2024-03-06T01:15:10;6.13;;;3.33;;
42700;SDS011;28316;49.504;8.526;2024-03-06T01:17:37;9.93;;;4.07;;
42700;SDS011;28316;49.504;8.526;2024-03-06T01:20:03;5.78;;;2.97;;
42700;SDS011;28316;49.504;8.526;2024-03-06T01:22:32;6.30;;;3.30;;
42700;SDS011;28316;49.504;8.526;2024-03-06T01:24:59;7.45;;;3.67;;
42700;SDS011;28316;49.504;8.526;2024-03-06T01:27:25;8.15;;;3.65;;
42700;SDS011;28316;49.504;8.526;2024-03-06T01:29:52;7.55;;;3.78;;
42700;SDS011;28316;49.504;8.526;2024-03-06T01:32:17;7.75;;;3.50;;
42700;SDS011;28316;49.504;8.526;2024-03-06T01:34:43;11.38;;;3.22;;
42700;SDS011;28316;49.504;8.526;2024-03-06T01:37:09;10.15;;;3.63;;
42700;SDS011;28316;49.504;8.526;2024-03-06T01:39:35;8.32;;;4.57;;
42700;SDS011;28316;49.504;8.526;2024-03-06T01:42:01;9.68;;;4.60;;
42700;SDS011;28316;49.504;8.526;2024-03-06T01:44:28;5.15;;;3.00;;
42700;SDS011;28316;49.504;8.526;2024-03-06T01:46:54;7.63;;;4.18;;
42700;SDS011;28316;49.504;8.526;2024-03-06T01:49:20;7.45;;;3.47;;
42700;SDS011;28316;49.504;8.526;2024-03-06T01:51:54;7.90;;;3.30;;
42700;SDS011;28316;49.504;8.526;2024-03-06T01:54:22;8.50;;;3.35;;
42700;SDS011;28316;49.504;8.526;2024-03-06T01:56:49;10.82;;;3.70;;
42700;SDS011;28316;49.504;8.526;2024-03-06T01:59:16;4.78;;;3.28;;
42700;SDS011;28316;49.504;8.526;2024-03-06T02:01:46;6.88;;;3.63;;
42700;SDS011;28316;49.504;8.526;2024-03-06T02:04:12;8.63;;;3.97;;
42700;SDS011;28316;49.504;8.526;2024-03-06T02:06:38;6.10;;;3.70;;
42700;SDS011;28316;49.504;8.526;2024-03-06T02:09:07;6.40;;;3.38;;
42700;SDS011;28316;49.504;8.526;2024-03-06T02:11:34;11.30;;;4.28;;
42700;SDS011;28316;49.504;8.526;2024-03-06T02:14:03;8.48;;;3.40;;
42700;SDS011;28316;49.504;8.526;2024-03-06T02:16:31;6.63;;;3.20;;
42700;SDS011;28316;49.504;8.526;2024-03-06T02:18:57;6.00;;;3.17;;
42700;SDS011;28316;49.504;8.526;2024-03-06T02:21:23;8.25;;;4.57;;
42700;SDS011;28316;49.504;8.526;2024-03-06T02:23:50;9.73;;;4.47;;
42700;SDS011;28316;49.504;8.526;2024-03-06T02:26:20;10.65;;;3.38;;
42700;SDS011;28316;49.504;8.526;2024-03-06T02:28:48;7.50;;;3.65;;
42700;SDS011;28316;49.504;8.526;2024-03-06T02:31:17;7.85;;;3.67;;
42700;SDS011;28316;49.504;8.526;2024-03-06T02:33:44;6.57;;;2.88;;
42700;SDS011;28316;49.504;8.526;2024-03-06T02:36:12;6.32;;;2.58;;
42700;SDS011;28316;49.504;8.526;2024-03-06T02:38:42;6.00;;;3.08;;
42700;SDS011;28316;49.504;8.526;2024-03-06T02:41:12;6.53;;;2.75;;
42700;SDS011;28316;49.504;8.526;2024-03-06T02:43:40;6.72;;;3.25;;
42700;SDS011;28316;49.504;8.526;2024-03-06T02:46:07;6.05;;;3.15;;
42700;SDS011;28316;49.504;8.526;2024-03-06T02:48:33;6.03;;;3.60;;
42700;SDS011;28316;49.504;8.526;2024-03-06T02:50:59;7.55;;;3.25;;
42700;SDS011;28316;49.504;8.526;2024-03-06T02:53:25;9.70;;;3.03;;
42700;SDS011;28316;49.504;8.526;2024-03-06T02:55:51;6.75;;;3.80;;
42700;SDS011;28316;49.504;8.526;2024-03-06T02:58:17;14.73;;;3.72;;
42700;SDS011;28316;49.504;8.526;2024-03-06T03:00:43;6.40;;;3.83;;
42700;SDS011;28316;49.504;8.526;2024-03-06T03:03:09;5.07;;;2.92;;
42700;SDS011;28316;49.504;8.526;2024-03-06T03:05:38;6.30;;;3.08;;
42700;SDS011;28316;49.504;8.526;2024-03-06T03:08:04;5.35;;;3.55;;
42700;SDS011;28316;49.504;8.526;2024-03-06T03:10:31;5.80;;;3.05;;
42700;SDS011;28316;49.504;8.526;2024-03-06T03:12:59;9.63;;;3.70;;
42700;SDS011;28316;49.504;8.526;2024-03-06T03:15:25;7.63;;;3.83;;
42700;SDS011;28316;49.504;8.526;2024-03-06T03:17:51;7.20;;;3.28;;
42700;SDS011;28316;49.504;8.526;2024-03-06T03:20:17;6.88;;;3.72;;
42700;SDS011;28316;49.504;8.526;2024-03-06T03:22:43;6.10;;;3.63;;
42700;SDS011;28316;49.504;8.526;2024-03-06T03:25:09;5.72;;;2.95;;
42700;SDS011;28316;49.504;8.526;2024-03-06T03:27:37;5.82;;;3.30;;
42700;SDS011;28316;49.504;8.526;2024-03-06T03:30:06;7.10;;;2.95;;
42700;SDS011;28316;49.504;8.526;2024-03-06T03:32:36;5.50;;;2.72;;
42700;SDS011;28316;49.504;8.526;2024-03-06T03:35:03;6.05;;;2.90;;
42700;SDS011;28316;49.504;8.526;2024-03-06T03:37:30;6.43;;;3.20;;
42700;SDS011;28316;49.504;8.526;2024-03-06T03:39:57;7.40;;;2.63;;
42700;SDS011;28316;49.504;8.526;2024-03-06T03:42:23;5.65;;;3.38;;
42700;SDS011;28316;49.504;8.526;2024-03-06T03:44:48;6.82;;;2.65;;
42700;SDS011;28316;49.504;8.526;2024-03-06T03:47:14;6.35;;;3.38;;
42700;SDS011;28316;49.504;8.526;2024-03-06T03:49:40;5.43;;;3.63;;
42700;SDS011;28316;49.504;8.526;2024-03-06T03:52:06;8.25;;;3.65;;
42700;SDS011;28316;49.504;8.526;2024-03-06T03:54:31;4.10;;;2.38;;
42700;SDS011;28316;49.504;8.526;2024-03-06T03:56:57;6.00;;;3.20;;
42700;SDS011;28316;49.504;8.526;2024-03-06T03:59:24;5.68;;;2.50;;
42700;SDS011;28316;49.504;8.526;2024-03-06T04:01:50;11.18;;;3.63;;
42700;SDS011;28316;49.504;8.526;2024-03-06T04:04:17;8.77;;;4.00;;
42700;SDS011;28316;49.504;8.526;2024-03-06T04:06:42;5.10;;;2.78;;
42700;SDS011;28316;49.504;8.526;2024-03-06T04:09:08;8.50;;;3.58;;
42700;SDS011;28316;49.504;8.526;2024-03-06T04:11:37;4.85;;;2.90;;
42700;SDS011;28316;49.504;8.526;2024-03-06T04:14:06;7.05;;;3.28;;
42700;SDS011;28316;49.504;8.526;2024-03-06T04:16:32;4.57;;;2.75;;
42700;SDS011;28316;49.504;8.526;2024-03-06T04:18:59;7.55;;;3.33;;
42700;SDS011;28316;49.504;8.526;2024-03-06T04:21:25;6.47;;;3.13;;
42700;SDS011;28316;49.504;8.526;2024-03-06T04:23:51;6.90;;;2.83;;
42700;SDS011;28316;49.504;8.526;2024-03-06T04:26:17;8.82;;;3.20;;
42700;SDS011;28316;49.504;8.526;2024-03-06T04:28:43;7.65;;;3.00;;
42700;SDS011;28316;49.504;8.526;2024-03-06T04:31:09;7.70;;;3.90;;
42700;SDS011;28316;49.504;8.526;2024-03-06T04:33:35;10.23;;;3.47;;
42700;SDS011;28316;49.504;8.526;2024-03-06T04:36:04;14.05;;;3.70;;
42700;SDS011;28316;49.504;8.526;2024-03-06T04:38:31;8.10;;;4.07;;
42700;SDS011;28316;49.504;8.526;2024-03-06T04:40:57;5.93;;;4.47;;
42700;SDS011;28316;49.504;8.526;2024-03-06T04:43:23;9.23;;;3.45;;
42700;SDS011;28316;49.504;8.526;2024-03-06T04:45:49;16.63;;;4.35;;
42700;SDS011;28316;49.504;8.526;2024-03-06T04:48:15;7.32;;;3.75;;
42700;SDS011;28316;49.504;8.526;2024-03-06T04:50:41;8.77;;;3.67;;
42700;SDS011;28316;49.504;8.526;2024-03-06T04:53:06;5.90;;;3.53;;
42700;SDS011;28316;49.504;8.526;2024-03-06T04:55:33;10.15;;;3.92;;
42700;SDS011;28316;49.504;8.526;2024-03-06T04:58:02;7.25;;;2.28;;
42700;SDS011;28316;49.504;8.526;2024-03-06T05:00:28;6.55;;;2.60;;
42700;SDS011;28316;49.504;8.526;2024-03-06T05:02:55;5.88;;;2.50;;
42700;SDS011;28316;49.504;8.526;2024-03-06T05:05:21;6.25;;;3.50;;
42700;SDS011;28316;49.504;8.526;2024-03-06T05:07:47;8.45;;;2.90;;
42700;SDS011;28316;49.504;8.526;2024-03-06T05:10:13;7.22;;;3.92;;
42700;SDS011;28316;49.504;8.526;2024-03-06T05:12:41;7.57;;;2.97;;
42700;SDS011;28316;49.504;8.526;2024-03-06T05:15:07;9.90;;;2.85;;
42700;SDS011;28316;49.504;8.526;2024-03-06T05:17:34;4.18;;;2.20;;
42700;SDS011;28316;49.504;8.526;2024-03-06T05:20:00;5.88;;;3.00;;
42700;SDS011;28316;49.504;8.526;2024-03-06T05:22:28;7.30;;;3.65;;
42700;SDS011;28316;49.504;8.526;2024-03-06T05:24:54;5.00;;;2.55;;
42700;SDS011;28316;49.504;8.526;2024-03-06T05:27:20;8.13;;;3.20;;
42700;SDS011;28316;49.504;8.526;2024-03-06T05:29:47;7.20;;;2.45;;
42700;SDS011;28316;49.504;8.526;2024-03-06T05:32:12;5.88;;;3.05;;
42700;SDS011;28316;49.504;8.526;2024-03-06T05:34:38;11.00;;;2.92;;
42700;SDS011;28316;49.504;8.526;2024-03-06T05:37:04;4.38;;;2.33;;
42700;SDS011;28316;49.504;8.526;2024-03-06T05:39:30;8.23;;;3.65;;
42700;SDS011;28316;49.504;8.526;2024-03-06T05:42:03;4.25;;;2.72;;
42700;SDS011;28316;49.504;8.526;2024-03-06T05:44:30;7.78;;;3.40;;
42700;SDS011;28316;49.504;8.526;2024-03-06T05:46:59;11.18;;;3.40;;
42700;SDS011;28316;49.504;8.526;2024-03-06T05:49:27;5.75;;;2.85;;
42700;SDS011;28316;49.504;8.526;2024-03-06T05:51:53;6.85;;;2.35;;
42700;SDS011;28316;49.504;8.526;2024-03-06T05:54:20;5.32;;;3.03;;
42700;SDS011;28316;49.504;8.526;2024-03-06T05:56:49;9.38;;;2.90;;
42700;SDS011;28316;49.504;8.526;2024-03-06T05:59:16;5.15;;;2.55;;
42700;SDS011;28316;49.504;8.526;2024-03-06T06:01:43;5.00;;;3.35;;
42700;SDS011;28316;49.504;8.526;2024-03-06T06:04:09;5.75;;;2.50;;
42700;SDS011;28316;49.504;8.526;2024-03-06T06:06:36;6.53;;;3.45;;
42700;SDS011;28316;49.504;8.526;2024-03-06T06:09:02;7.78;;;4.25;;
42700;SDS011;28316;49.504;8.526;2024-03-06T06:11:31;5.88;;;2.80;;
42700;SDS011;28316;49.504;8.526;2024-03-06T06:14:00;6.82;;;3.13;;
42700;SDS011;28316;49.504;8.526;2024-03-06T06:16:26;4.72;;;2.33;;
42700;SDS011;28316;49.504;8.526;2024-03-06T06:18:51;3.15;;;2.17;;
42700;SDS011;28316;49.504;8.526;2024-03-06T06:21:17;5.70;;;3.13;;
42700;SDS011;28316;49.504;8.526;2024-03-06T06:23:43;6.60;;;3.08;;
42700;SDS011;28316;49.504;8.526;2024-03-06T06:26:09;4.75;;;3.55;;
42700;SDS011;28316;49.504;8.526;2024-03-06T06:28:36;18.98;;;3.60;;
42700;SDS011;28316;49.504;8.526;2024-03-06T06:31:03;6.50;;;2.80;;
42700;SDS011;28316;49.504;8.526;2024-03-06T06:33:29;6.53;;;2.75;;
42700;SDS011;28316;49.504;8.526;2024-03-06T06:35:55;9.68;;;3.88;;
42700;SDS011;28316;49.504;8.526;2024-03-06T06:38:21;8.18;;;3.40;;
42700;SDS011;28316;49.504;8.526;2024-03-06T06:40:47;8.30;;;3.10;;
42700;SDS011;28316;49.504;8.526;2024-03-06T06:43:13;6.57;;;3.22;;
42700;SDS011;28316;49.504;8.526;2024-03-06T06:45:40;9.50;;;3.58;;
42700;SDS011;28316;49.504;8.526;2024-03-06T06:48:06;8.10;;;3.80;;
42700;SDS011;28316;49.504;8.526;2024-03-06T06:50:34;8.43;;;3.53;;
42700;SDS011;28316;49.504;8.526;2024-03-06T06:53:00;15.38;;;4.13;;
42700;SDS011;28316;49.504;8.526;2024-03-06T06:55:26;6.95;;;3.60;;
42700;SDS011;28316;49.504;8.526;2024-03-06T06:57:52;4.68;;;2.55;;
42700;SDS011;28316;49.504;8.526;2024-03-06T07:00:18;6.50;;;3.03;;
42700;SDS011;28316;49.504;8.526;2024-03-06T07:02:47;3.65;;;2.85;;
42700;SDS011;28316;49.504;8.526;2024-03-06T07:05:12;5.07;;;3.20;;
42700;SDS011;28316;49.504;8.526;2024-03-06T07:07:38;8.95;;;3.50;;
42700;SDS011;28316;49.504;8.526;2024-03-06T07:10:04;9.07;;;3.45;;
42700;SDS011;28316;49.504;8.526;2024-03-06T07:12:31;12.50;;;3.05;;
42700;SDS011;28316;49.504;8.526;2024-03-06T07:14:57;6.70;;;2.85;;
42700;SDS011;28316;49.504;8.526;2024-03-06T07:17:24;7.28;;;3.10;;
42700;SDS011;28316;49.504;8.526;2024-03-06T07:19:50;5.03;;;3.05;;
42700;SDS011;28316;49.504;8.526;2024-03-06T07:22:17;5.63;;;2.72;;
42700;SDS011;28316;49.504;8.526;2024-03-06T07:24:44;8.73;;;3.85;;
42700;SDS011;28316;49.504;8.526;2024-03-06T07:27:10;9.38;;;4.28;;
42700;SDS011;28316;49.504;8.526;2024-03-06T07:29:36;6.78;;;3.25;;
42700;SDS011;28316;49.504;8.526;2024-03-06T07:32:02;5.07;;;2.72;;
42700;SDS011;28316;49.504;8.526;2024-03-06T07:34:31;5.78;;;2.88;;
42700;SDS011;28316;49.504;8.526;2024-03-06T07:36:57;5.53;;;2.50;;
42700;SDS011;28316;49.504;8.526;2024-03-06T07:39:24;7.70;;;2.90;;
42700;SDS011;28316;49.504;8.526;2024-03-06T07:41:50;4.63;;;2.53;;
42700;SDS011;28316;49.504;8.526;2024-03-06T07:44:16;7.20;;;3.33;;
42700;SDS011;28316;49.504;8.526;2024-03-06T07:46:42;8.02;;;3.42;;
42700;SDS011;28316;49.504;8.526;2024-03-06T07:49:08;5.65;;;3.55;;
42700;SDS011;28316;49.504;8.526;2024-03-06T07:51:34;7.97;;;3.25;;
42700;SDS011;28316;49.504;8.526;2024-03-06T07:54:03;6.00;;;3.42;;
42700;SDS011;28316;49.504;8.526;2024-03-06T07:56:31;5.50;;;3.05;;
42700;SDS011;28316;49.504;8.526;2024-03-06T07:58:57;6.50;;;3.20;;
42700;SDS011;28316;49.504;8.526;2024-03-06T08:01:23;13.07;;;3.55;;
42700;SDS011;28316;49.504;8.526;2024-03-06T08:03:49;6.85;;;2.83;;
42700;SDS011;28316;49.504;8.526;2024-03-06T08:06:15;6.35;;;3.40;;
42700;SDS011;28316;49.504;8.526;2024-03-06T08:08:41;5.95;;;2.63;;
42700;SDS011;28316;49.504;8.526;2024-03-06T08:11:09;7.65;;;2.60;;
42700;SDS011;28316;49.504;8.526;2024-03-06T08:13:38;14.13;;;3.33;;
42700;SDS011;28316;49.504;8.526;2024-03-06T08:16:05;4.88;;;2.72;;
42700;SDS011;28316;49.504;8.526;2024-03-06T08:18:34;6.38;;;3.28;;
42700;SDS011;28316;49.504;8.526;2024-03-06T08:21:02;4.50;;;2.33;;
42700;SDS011;28316;49.504;8.526;2024-03-06T08:23:31;6.35;;;2.88;;
42700;SDS011;28316;49.504;8.526;2024-03-06T08:25:58;8.27;;;3.63;;
42700;SDS011;28316;49.504;8.526;2024-03-06T08:28:25;12.60;;;2.75;;
42700;SDS011;28316;49.504;8.526;2024-03-06T08:30:51;7.68;;;2.70;;
42700;SDS011;28316;49.504;8.526;2024-03-06T08:33:18;3.35;;;1.90;;
42700;SDS011;28316;49.504;8.526;2024-03-06T08:35:46;4.10;;;2.22;;
42700;SDS011;28316;49.504;8.526;2024-03-06T08:38:11;7.43;;;2.58;;
42700;SDS011;28316;49.504;8.526;2024-03-06T08:40:37;9.73;;;2.80;;
42700;SDS011;28316;49.504;8.526;2024-03-06T08:43:03;6.03;;;2.83;;
42700;SDS011;28316;49.504;8.526;2024-03-06T08:45:29;3.67;;;2.15;;
42700;SDS011;28316;49.504;8.526;2024-03-06T08:47:55;4.65;;;2.30;;
42700;SDS011;28316;49.504;8.526;2024-03-06T08:50:20;3.15;;;1.98;;
42700;SDS011;28316;49.504;8.526;2024-03-06T08:52:46;6.15;;;1.45;;
42700;SDS011;28316;49.504;8.526;2024-03-06T08:55:12;4.03;;;1.30;;
42700;SDS011;28316;49.504;8.526;2024-03-06T08:57:38;3.60;;;1.95;;
42700;SDS011;28316;49.504;8.526;2024-03-06T09:00:05;2.28;;;1.45;;
42700;SDS011;28316;49.504;8.526;2024-03-06T09:02:39;11.88;;;2.05;;
42700;SDS011;28316;49.504;8.526;2024-03-06T09:05:08;6.63;;;2.20;;
42700;SDS011;28316;49.504;8.526;2024-03-06T09:07:37;5.25;;;1.88;;
42700;SDS011;28316;49.504;8.526;2024-03-06T09:10:06;2.88;;;1.20;;
42700;SDS011;28316;49.504;8.526;2024-03-06T09:12:33;3.28;;;1.35;;
42700;SDS011;28316;49.504;8.526;2024-03-06T09:14:59;2.40;;;1.45;;
42700;SDS011;28316;49.504;8.526;2024-03-06T09:17:29;2.85;;;1.63;;
42700;SDS011;28316;49.504;8.526;2024-03-06T09:19:55;9.45;;;1.98;;
42700;SDS011;28316;49.504;8.526;2024-03-06T09:22:21;5.35;;;1.33;;
42700;SDS011;28316;49.504;8.526;2024-03-06T09:24:47;5.07;;;2.03;;
42700;SDS011;28316;49.504;8.526;2024-03-06T09:27:14;2.40;;;1.33;;
42700;SDS011;28316;49.504;8.526;2024-03-06T09:29:41;2.97;;;1.70;;
42700;SDS011;28316;49.504;8.526;2024-03-06T09:32:08;4.63;;;1.95;;
42700;SDS011;28316;49.504;8.526;2024-03-06T09:34:33;3.70;;;1.77;;
42700;SDS011;28316;49.504;8.526;2024-03-06T09:36:59;6.30;;;2.75;;
42700;SDS011;28316;49.504;8.526;2024-03-06T09:39:25;6.07;;;2.05;;
42700;SDS011;28316;49.504;8.526;2024-03-06T09:41:52;2.83;;;1.90;;
42700;SDS011;28316;49.504;8.526;2024-03-06T09:44:22;3.17;;;1.30;;
42700;SDS011;28316;49.504;8.526;2024-03-06T09:46:48;2.95;;;1.63;;
42700;SDS011;28316;49.504;8.526;2024-03-06T09:49:18;8.52;;;1.90;;
42700;SDS011;28316;49.504;8.526;2024-03-06T09:51:45;3.50;;;1.88;;
42700;SDS011;28316;49.504;8.526;2024-03-06T09:54:14;3.40;;;1.95;;
42700;SDS011;28316;49.504;8.526;2024-03-06T09:56:42;4.28;;;1.70;;
42700;SDS011;28316;49.504;8.526;2024-03-06T09:59:12;3.58;;;1.85;;
42700;SDS011;28316;49.504;8.526;2024-03-06T10:02:00;3.35;;;2.00;;
42700;SDS011;28316;49.504;8.526;2024-03-06T10:04:32;4.80;;;2.40;;
42700;SDS011;28316;49.504;8.526;2024-03-06T10:06:59;3.35;;;2.30;;
42700;SDS011;28316;49.504;8.526;2024-03-06T10:09:27;4.93;;;1.88;;
42700;SDS011;28316;49.504;8.526;2024-03-06T10:11:54;5.13;;;2.35;;
42700;SDS011;28316;49.504;8.526;2024-03-06T10:14:22;7.93;;;2.70;;
42700;SDS011;28316;49.504;8.526;2024-03-06T10:19:22;6.72;;;2.63;;
42700;SDS011;28316;49.504;8.526;2024-03-06T10:21:50;6.43;;;2.95;;
42700;SDS011;28316;49.504;8.526;2024-03-06T10:24:19;4.18;;;2.10;;
42700;SDS011;28316;49.504;8.526;2024-03-06T10:26:52;4.15;;;2.35;;
42700;SDS011;28316;49.504;8.526;2024-03-06T10:29:23;5.25;;;2.83;;
42700;SDS011;28316;49.504;8.526;2024-03-06T10:34:22;9.80;;;3.63;;
42700;SDS011;28316;49.504;8.526;2024-03-06T10:36:57;10.50;;;3.50;;
42700;SDS011;28316;49.504;8.526;2024-03-06T10:39:26;6.25;;;2.38;;
42700;SDS011;28316;49.504;8.526;2024-03-06T10:41:54;9.60;;;3.38;;
42700;SDS011;28316;49.504;8.526;2024-03-06T10:44:22;7.13;;;3.83;;
42700;SDS011;28316;49.504;8.526;2024-03-06T10:46:59;7.07;;;3.05;;
42700;SDS011;28316;49.504;8.526;2024-03-06T10:49:27;9.10;;;3.40;;
42700;SDS011;28316;49.504;8.526;2024-03-06T10:51:59;7.90;;;3.08;;
42700;SDS011;28316;49.504;8.526;2024-03-06T10:54:29;8.52;;;3.45;;
42700;SDS011;28316;49.504;8.526;2024-03-06T10:56:57;9.30;;;3.10;;
42700;SDS011;28316;49.504;8.526;2024-03-06T10:59:27;6.22;;;2.67;;
42700;SDS011;28316;49.504;8.526;2024-03-06T11:01:57;9.48;;;3.85;;
42700;SDS011;28316;49.504;8.526;2024-03-06T11:04:29;7.53;;;3.15;;
42700;SDS011;28316;49.504;8.526;2024-03-06T11:06:59;9.10;;;3.78;;
42700;SDS011;28316;49.504;8.526;2024-03-06T11:09:27;7.95;;;3.28;;
42700;SDS011;28316;49.504;8.526;2024-03-06T11:12:00;7.05;;;3.40;;
42700;SDS011;28316;49.504;8.526;2024-03-06T11:14:27;13.45;;;4.43;;
42700;SDS011;28316;49.504;8.526;2024-03-06T11:16:56;7.15;;;3.65;;
42700;SDS011;28316;49.504;8.526;2024-03-06T11:28:11;6.97;;;3.50;;
42700;SDS011;28316;49.504;8.526;2024-03-06T11:30:48;8.83;;;3.90;;
42700;SDS011;28316;49.504;8.526;2024-03-06T11:33:44;8.52;;;3.33;;
42700;SDS011;28316;49.504;8.526;2024-03-06T11:41:27;12.57;;;3.58;;
42700;SDS011;28316;49.504;8.526;2024-03-06T11:44:17;9.02;;;3.72;;
42700;SDS011;28316;49.504;8.526;2024-03-06T11:49:20;10.90;;;3.78;;
42700;SDS011;28316;49.504;8.526;2024-03-06T11:51:51;7.05;;;3.38;;
42700;SDS011;28316;49.504;8.526;2024-03-06T11:54:18;7.43;;;4.13;;
42700;SDS011;28316;49.504;8.526;2024-03-06T11:56:48;7.90;;;4.68;;
42700;SDS011;28316;49.504;8.526;2024-03-06T11:59:16;8.75;;;4.05;;
42700;SDS011;28316;49.504;8.526;2024-03-06T12:01:42;13.50;;;4.00;;
42700;SDS011;28316;49.504;8.526;2024-03-06T12:04:09;9.13;;;5.20;;
42700;SDS011;28316;49.504;8.526;2024-03-06T12:06:35;10.00;;;3.85;;
42700;SDS011;28316;49.504;8.526;2024-03-06T12:09:02;8.85;;;4.63;;
42700;SDS011;28316;49.504;8.526;2024-03-06T12:11:28;7.65;;;3.67;;
42700;SDS011;28316;49.504;8.526;2024-03-06T12:13:56;8.10;;;4.38;;
42700;SDS011;28316;49.504;8.526;2024-03-06T12:16:22;11.20;;;4.38;;
42700;SDS011;28316;49.504;8.526;2024-03-06T12:18:55;9.63;;;3.78;;
42700;SDS011;28316;49.504;8.526;2024-03-06T12:21:23;7.43;;;4.03;;
42700;SDS011;28316;49.504;8.526;2024-03-06T12:24:05;10.57;;;4.88;;
42700;SDS011;28316;49.504;8.526;2024-03-06T12:26:33;8.23;;;4.78;;
42700;SDS011;28316;49.504;8.526;2024-03-06T12:29:09;10.63;;;4.10;;
42700;SDS011;28316;49.504;8.526;2024-03-06T12:31:41;7.80;;;3.92;;
42700;SDS011;28316;49.504;8.526;2024-03-06T12:34:07;7.30;;;3.58;;
42700;SDS011;28316;49.504;8.526;2024-03-06T12:36:38;10.35;;;4.32;;
42700;SDS011;28316;49.504;8.526;2024-03-06T12:39:04;10.30;;;4.43;;
42700;SDS011;28316;49.504;8.526;2024-03-06T12:41:38;9.93;;;4.95;;
42700;SDS011;28316;49.504;8.526;2024-03-06T12:44:05;11.43;;;4.65;;
42700;SDS011;28316;49.504;8.526;2024-03-06T12:46:31;8.55;;;3.67;;
42700;SDS011;28316;49.504;8.526;2024-03-06T12:48:58;9.88;;;4.50;;
42700;SDS011;28316;49.504;8.526;2024-03-06T12:51:23;5.80;;;3.13;;
42700;SDS011;28316;49.504;8.526;2024-03-06T12:53:49;8.52;;;4.25;;
42700;SDS011;28316;49.504;8.526;2024-03-06T12:56:16;12.10;;;5.53;;
42700;SDS011;28316;49.504;8.526;2024-03-06T12:58:42;8.25;;;4.43;;
42700;SDS011;28316;49.504;8.526;2024-03-06T13:01:08;12.57;;;4.57;;
42700;SDS011;28316;49.504;8.526;2024-03-06T13:03:35;11.32;;;4.53;;
42700;SDS011;28316;49.504;8.526;2024-03-06T13:06:02;14.35;;;5.35;;
42700;SDS011;28316;49.504;8.526;2024-03-06T13:08:31;11.68;;;6.28;;
42700;SDS011;28316;49.504;8.526;2024-03-06T13:10:57;12.43;;;5.15;;
42700;SDS011;28316;49.504;8.526;2024-03-06T13:13:23;15.48;;;5.60;;
42700;SDS011;28316;49.504;8.526;2024-03-06T13:15:50;11.57;;;5.68;;
42700;SDS011;28316;49.504;8.526;2024-03-06T13:18:16;13.85;;;6.57;;
42700;SDS011;28316;49.504;8.526;2024-03-06T13:20:43;11.23;;;5.32;;
42700;SDS011;28316;49.504;8.526;2024-03-06T13:23:10;13.73;;;6.60;;
42700;SDS011;28316;49.504;8.526;2024-03-06T13:25:36;14.50;;;5.63;;
42700;SDS011;28316;49.504;8.526;2024-03-06T13:28:02;16.48;;;6.72;;
42700;SDS011;28316;49.504;8.526;2024-03-06T13:30:30;13.60;;;6.43;;
42700;SDS011;28316;49.504;8.526;2024-03-06T13:32:56;13.60;;;5.10;;
42700;SDS011;28316;49.504;8.526;2024-03-06T13:35:23;10.52;;;4.85;;
42700;SDS011;28316;49.504;8.526;2024-03-06T13:37:49;13.52;;;4.40;;
42700;SDS011;28316;49.504;8.526;2024-03-06T13:40:15;15.60;;;6.35;;
42700;SDS011;28316;49.504;8.526;2024-03-06T13:42:40;9.13;;;3.92;;
42700;SDS011;28316;49.504;8.526;2024-03-06T13:45:07;12.85;;;5.18;;
42700;SDS011;28316;49.504;8.526;2024-03-06T13:47:40;12.98;;;4.75;;
42700;SDS011;28316;49.504;8.526;2024-03-06T13:50:08;10.35;;;4.95;;
42700;SDS011;28316;49.504;8.526;2024-03-06T13:52:35;14.15;;;5.32;;
42700;SDS011;28316;49.504;8.526;2024-03-06T13:55:01;10.05;;;4.32;;
42700;SDS011;28316;49.504;8.526;2024-03-06T13:57:29;13.52;;;5.53;;
42700;SDS011;28316;49.504;8.526;2024-03-06T13:59:59;13.82;;;5.38;;
42700;SDS011;28316;49.504;8.526;2024-03-06T14:02:30;11.85;;;4.43;;
42700;SDS011;28316;49.504;8.526;2024-03-06T14:04:56;11.18;;;4.60;;
42700;SDS011;28316;49.504;8.526;2024-03-06T14:07:22;9.90;;;4.65;;
42700;SDS011;28316;49.504;8.526;2024-03-06T14:09:51;10.45;;;4.72;;
42700;SDS011;28316;49.504;8.526;2024-03-06T14:12:17;12.90;;;5.40;;
42700;SDS011;28316;49.504;8.526;2024-03-06T14:14:43;15.60;;;5.28;;
42700;SDS011;28316;49.504;8.526;2024-03-06T14:17:12;14.18;;;6.43;;
42700;SDS011;28316;49.504;8.526;2024-03-06T14:19:38;7.72;;;4.07;;
42700;SDS011;28316;49.504;8.526;2024-03-06T14:22:05;11.00;;;4.78;;
42700;SDS011;28316;49.504;8.526;2024-03-06T14:24:32;10.45;;;5.47;;
42700;SDS011;28316;49.504;8.526;2024-03-06T14:26:58;9.13;;;3.95;;
42700;SDS011;28316;49.504;8.526;2024-03-06T14:29:24;10.07;;;4.03;;
42700;SDS011;28316;49.504;8.526;2024-03-06T14:31:52;10.88;;;4.88;;
42700;SDS011;28316;49.504;8.526;2024-03-06T14:34:19;11.30;;;5.18;;
42700;SDS011;28316;49.504;8.526;2024-03-06T14:36:45;10.30;;;4.68;;
42700;SDS011;28316;49.504;8.526;2024-03-06T14:39:11;11.88;;;5.85;;
42700;SDS011;28316;49.504;8.526;2024-03-06T14:41:39;15.65;;;5.47;;
42700;SDS011;28316;49.504;8.526;2024-03-06T14:44:07;9.50;;;4.20;;
42700;SDS011;28316;49.504;8.526;2024-03-06T14:46:33;15.65;;;4.82;;
42700;SDS011;28316;49.504;8.526;2024-03-06T14:48:59;12.75;;;5.22;;
42700;SDS011;28316;49.504;8.526;2024-03-06T14:51:27;14.02;;;6.10;;
42700;SDS011;28316;49.504;8.526;2024-03-06T14:53:53;13.02;;;5.40;;
42700;SDS011;28316;49.504;8.526;2024-03-06T14:56:19;17.10;;;6.60;;
42700;SDS011;28316;49.504;8.526;2024-03-06T14:58:46;14.77;;;5.13;;
42700;SDS011;28316;49.504;8.526;2024-03-06T15:01:13;12.15;;;5.05;;
42700;SDS011;28316;49.504;8.526;2024-03-06T15:03:39;13.02;;;4.97;;
42700;SDS011;28316;49.504;8.526;2024-03-06T15:06:05;14.60;;;5.85;;
42700;SDS011;28316;49.504;8.526;2024-03-06T15:08:33;12.98;;;5.60;;